createdAt,value
2023-01-23T00:01:51.744Z,97244.28
2023-01-23T00:04:20.371Z,97248.50
2023-01-23T00:06:50.671Z,97242.59
2023-01-23T00:09:18.537Z,97247.63
2023-01-23T00:11:46.350Z,97255.22
2023-01-23T00:14:15.531Z,97247.63
2023-01-23T00:16:43.365Z,97249.34
2023-01-23T00:19:11.586Z,97246.81
2023-01-23T00:21:39.411Z,97250.16
2023-01-23T00:24:12.650Z,97251.81
2023-01-23T00:26:40.875Z,97254.34
2023-01-23T00:29:34.901Z,97249.34
2023-01-23T00:32:02.760Z,97253.53
2023-01-23T00:34:30.611Z,97255.22
2023-01-23T00:36:58.601Z,97247.63
2023-01-23T00:39:26.546Z,97254.34
2023-01-23T00:41:54.295Z,97256.06
2023-01-23T00:44:22.263Z,97259.41
2023-01-23T00:46:51.437Z,97252.69
2023-01-23T00:49:19.692Z,97261.88
2023-01-23T00:51:48.080Z,97261.06
2023-01-23T00:54:16.180Z,97269.47
2023-01-23T00:56:44.362Z,97272.84
2023-01-23T00:59:12.246Z,97278.66
2023-01-23T01:01:40.171Z,97281.19
2023-01-23T01:04:09.431Z,97282.03
2023-01-23T01:06:37.479Z,97271.97
2023-01-23T01:09:05.587Z,97271.97
2023-01-23T01:11:33.387Z,97280.38
2023-01-23T01:14:01.721Z,97282.91
2023-01-23T01:16:29.888Z,97274.50
2023-01-23T01:18:59.530Z,97274.50
2023-01-23T01:21:29.033Z,97272.00
2023-01-23T01:23:56.942Z,97275.38
2023-01-23T01:26:27.866Z,97281.19
2023-01-23T01:28:55.711Z,97281.19
2023-01-23T01:31:23.714Z,97281.19
2023-01-23T01:33:51.737Z,97287.97
2023-01-23T01:36:25.304Z,97286.28
2023-01-23T01:38:54.553Z,97285.44
2023-01-23T01:41:22.519Z,97279.56
2023-01-23T01:43:51.104Z,97280.44
2023-01-23T01:46:22.263Z,97285.44
2023-01-23T01:49:10.357Z,97287.91
2023-01-23T01:51:45.135Z,97286.28
2023-01-23T01:54:22.553Z,97293.84
2023-01-23T01:56:56.409Z,97294.66
2023-01-23T01:59:27.238Z,97290.44
2023-01-23T02:02:04.949Z,97291.34
2023-01-23T02:04:34.096Z,97287.91
2023-01-23T02:07:06.702Z,97292.97
2023-01-23T02:09:36.025Z,97291.31
2023-01-23T02:12:04.307Z,97292.97
2023-01-23T02:14:32.247Z,97295.53
2023-01-23T02:17:03.348Z,97284.56
2023-01-23T02:19:41.517Z,97295.53
2023-01-23T02:22:21.006Z,97287.09
2023-01-23T02:25:00.119Z,97287.09
2023-01-23T02:27:29.453Z,97295.53
2023-01-23T02:29:57.265Z,97295.53
2023-01-23T02:32:28.229Z,97294.69
2023-01-23T02:34:59.385Z,97295.53
2023-01-23T02:37:31.863Z,97295.53
2023-01-23T02:40:01.650Z,97297.22
2023-01-23T02:42:33.220Z,97298.91
2023-01-23T02:45:02.064Z,97298.84
2023-01-23T02:47:29.859Z,97307.28
2023-01-23T02:49:58.707Z,97299.66
2023-01-23T02:52:26.563Z,97309.81
2023-01-23T02:54:54.371Z,97307.28
2023-01-23T02:57:22.362Z,97304.75
2023-01-23T03:00:09.276Z,97306.44
2023-01-23T03:02:38.339Z,97316.53
2023-01-23T03:05:07.078Z,97312.34
2023-01-23T03:07:35.587Z,97305.56
2023-01-23T03:10:06.225Z,97314.88
2023-01-23T03:12:34.823Z,97308.97
2023-01-23T03:15:06.284Z,97314.06
2023-01-23T03:17:36.424Z,97310.69
2023-01-23T03:20:05.999Z,97309.81
2023-01-23T03:22:33.871Z,97305.66
2023-01-23T03:25:02.483Z,97305.63
2023-01-23T03:27:31.320Z,97310.69
2023-01-23T03:30:15.680Z,97308.97
2023-01-23T03:32:46.587Z,97314.06
2023-01-23T03:35:16.766Z,97314.06
2023-01-23T03:37:46.247Z,97318.22
2023-01-23T03:40:35.647Z,97315.69
2023-01-23T03:43:05.965Z,97316.53
2023-01-23T03:45:39.741Z,97307.34
2023-01-23T03:48:09.344Z,97311.56
2023-01-23T03:50:37.252Z,97307.38
2023-01-23T03:53:05.257Z,97316.66
2023-01-23T03:55:33.065Z,97310.72
2023-01-23T03:58:00.924Z,97311.59
2023-01-23T04:00:31.464Z,97304.00
2023-01-23T04:03:04.781Z,97301.53
2023-01-23T04:05:34.494Z,97304.81
2023-01-23T04:08:03.450Z,97313.25
2023-01-23T04:10:32.205Z,97306.50
2023-01-23T04:13:06.747Z,97309.97
2023-01-23T04:15:39.938Z,97306.53
2023-01-23T04:18:08.252Z,97311.56
2023-01-23T04:20:37.369Z,97318.28
2023-01-23T04:23:05.402Z,97314.06
2023-01-23T04:25:34.272Z,97324.19
2023-01-23T04:28:05.115Z,97320.75
2023-01-23T04:30:33.739Z,97322.47
2023-01-23T04:33:09.473Z,97317.47
2023-01-23T04:35:39.195Z,97319.13
2023-01-23T04:38:07.805Z,97325.00
2023-01-23T04:40:38.551Z,97320.81
2023-01-23T04:43:06.446Z,97321.66
2023-01-23T04:45:44.884Z,97320.81
2023-01-23T04:48:51.532Z,97316.66
2023-01-23T04:51:21.443Z,97323.38
2023-01-23T04:53:49.394Z,97325.84
2023-01-23T04:56:18.124Z,97330.06
2023-01-23T04:58:49.827Z,97330.91
2023-01-23T05:01:23.194Z,97340.16
2023-01-23T05:03:55.737Z,97327.53
2023-01-23T05:06:24.974Z,97339.31
2023-01-23T05:08:55.998Z,97336.78
2023-01-23T05:11:29.798Z,97338.44
2023-01-23T05:13:58.643Z,97337.63
2023-01-23T05:16:26.922Z,97343.50
2023-01-23T05:19:24.078Z,97336.72
2023-01-23T05:21:54.303Z,97348.50
2023-01-23T05:24:23.189Z,97347.63
2023-01-23T05:26:51.104Z,97356.91
2023-01-23T05:29:20.517Z,97349.31
2023-01-23T05:32:11.111Z,97355.19
2023-01-23T05:34:39.658Z,97356.09
2023-01-23T05:37:26.310Z,97355.19
2023-01-23T05:40:08.627Z,97354.38
2023-01-23T05:42:54.892Z,97354.41
2023-01-23T05:45:35.288Z,97350.16
2023-01-23T05:48:07.316Z,97352.75
2023-01-23T05:50:35.346Z,97351.03
2023-01-23T05:53:05.293Z,97353.59
2023-01-23T05:55:34.620Z,97350.16
2023-01-23T05:58:02.502Z,97356.13
2023-01-23T06:00:54.080Z,97361.16
2023-01-23T06:03:53.944Z,97360.28
2023-01-23T06:06:35.459Z,97364.44
2023-01-23T06:09:04.746Z,97362.81
2023-01-23T06:11:33.149Z,97367.81
2023-01-23T06:14:00.962Z,97373.63
2023-01-23T06:16:28.844Z,97379.59
2023-01-23T06:18:58.189Z,97374.53
2023-01-23T06:21:28.324Z,97378.78
2023-01-23T06:24:00.047Z,97377.00
2023-01-23T06:26:30.271Z,97378.72
2023-01-23T06:28:59.522Z,97384.59
2023-01-23T06:31:27.580Z,97383.72
2023-01-23T06:34:00.177Z,97388.78
2023-01-23T06:36:32.796Z,97382.06
2023-01-23T06:39:00.868Z,97379.53
2023-01-23T06:41:37.872Z,97393.84
2023-01-23T06:44:07.969Z,97395.50
2023-01-23T06:46:37.075Z,97399.72
2023-01-23T06:49:06.366Z,97394.66
2023-01-23T06:51:37.504Z,97406.44
2023-01-23T06:54:08.020Z,97399.66
2023-01-23T06:56:37.371Z,97407.19
2023-01-23T06:59:09.040Z,97408.91
2023-01-23T07:01:36.899Z,97406.38
2023-01-23T07:04:29.934Z,97406.38
2023-01-23T07:06:57.865Z,97405.50
2023-01-23T07:09:25.818Z,97419.88
2023-01-23T07:12:07.384Z,97413.91
2023-01-23T07:14:35.925Z,97411.38
2023-01-23T07:17:04.002Z,97414.81
2023-01-23T07:19:32.856Z,97414.81
2023-01-23T07:22:02.195Z,97413.91
2023-01-23T07:24:32.444Z,97422.34
2023-01-23T07:27:00.623Z,97427.34
2023-01-23T07:29:29.894Z,97427.34
2023-01-23T07:38:35.054Z,97432.41
2023-01-23T08:10:34.340Z,97470.09
2023-01-23T08:13:02.170Z,97476.88
2023-01-23T08:15:29.987Z,97480.22
2023-01-23T08:17:59.136Z,97483.53
2023-01-23T08:20:27.098Z,97479.34
2023-01-23T08:22:55.651Z,97492.78
2023-01-23T08:25:23.488Z,97499.50
2023-01-23T08:27:51.270Z,97505.38
2023-01-23T08:30:19.704Z,97499.47
2023-01-23T08:32:47.991Z,97500.31
2023-01-23T08:35:17.769Z,97507.91
2023-01-23T08:37:45.662Z,97506.19
2023-01-23T08:40:14.054Z,97513.81
2023-01-23T08:42:42.202Z,97515.44
2023-01-23T08:45:10.847Z,97512.09
2023-01-23T08:47:38.780Z,97512.91
2023-01-23T08:50:08.080Z,97512.91
2023-01-23T08:52:37.194Z,97512.09
2023-01-23T08:55:05.512Z,97514.63
2023-01-23T08:57:33.406Z,97523.88
2023-01-23T09:00:01.234Z,97523.00
2023-01-23T09:02:29.247Z,97531.38
2023-01-23T09:04:57.130Z,97542.31
2023-01-23T09:07:24.977Z,97547.25
2023-01-23T09:09:54.970Z,97553.09
2023-01-23T09:12:22.826Z,97560.69
2023-01-23T09:14:50.641Z,97574.06
2023-01-23T09:17:18.397Z,97587.53
2023-01-23T09:19:46.261Z,97594.22
2023-01-23T09:22:14.098Z,97600.94
2023-01-23T09:24:41.881Z,97600.88
2023-01-23T09:27:11.171Z,97609.25
2023-01-23T09:29:38.938Z,97621.06
2023-01-23T09:32:07.229Z,97632.81
2023-01-23T09:34:35.348Z,97643.69
2023-01-23T09:37:03.945Z,97648.75
2023-01-23T09:39:31.937Z,97648.72
2023-01-23T09:42:08.478Z,97661.28
2023-01-23T09:44:42.049Z,97662.13
2023-01-23T09:47:16.963Z,97668.84
2023-01-23T09:50:17.211Z,97688.19
2023-01-23T09:52:50.403Z,97694.03
2023-01-23T09:55:24.112Z,97695.72
2023-01-23T09:57:55.826Z,97694.91
2023-01-23T10:00:27.559Z,97700.75
2023-01-23T10:02:56.835Z,97703.22
2023-01-23T10:05:33.365Z,97724.22
2023-01-23T10:08:15.615Z,97729.28
2023-01-23T10:10:58.572Z,97730.94
2023-01-23T10:13:41.545Z,97725.94
2023-01-23T10:16:49.064Z,97737.72
2023-01-23T10:19:35.052Z,97741.03
2023-01-23T10:22:22.245Z,97753.59
2023-01-23T10:24:52.233Z,97769.53
2023-01-23T10:27:23.733Z,97787.22
2023-01-23T10:29:56.860Z,97792.22
2023-01-23T10:32:28.570Z,97803.97
2023-01-23T10:35:01.745Z,97819.13
2023-01-23T10:37:46.076Z,97822.44
2023-01-23T10:40:17.139Z,97829.13
2023-01-23T10:42:44.950Z,97851.88
2023-01-23T10:45:19.088Z,97854.31
2023-01-23T10:47:54.624Z,97868.59
2023-01-23T10:50:36.813Z,97891.31
2023-01-23T10:53:08.631Z,97901.41
2023-01-23T10:55:36.890Z,97916.47
2023-01-23T10:58:06.822Z,97921.47
2023-01-23T11:00:37.477Z,97936.72
2023-01-23T11:03:28.145Z,97937.47
2023-01-23T11:05:57.984Z,97945.88
2023-01-23T11:08:28.347Z,97954.31
2023-01-23T11:11:18.609Z,97954.25
2023-01-23T11:13:48.929Z,97966.91
2023-01-23T11:19:18.915Z,97995.47
2023-01-23T11:21:56.015Z,97994.59
2023-01-23T11:24:40.348Z,98011.44
2023-01-23T11:27:19.308Z,98016.50
2023-01-23T11:30:02.100Z,98013.06
2023-01-23T11:32:33.015Z,98031.63
2023-01-23T11:35:13.995Z,98037.44
2023-01-23T11:37:43.213Z,98039.97
2023-01-23T11:40:15.096Z,98052.59
2023-01-23T11:42:44.378Z,98057.63
2023-01-23T11:45:34.544Z,98067.75
2023-01-23T11:48:20.277Z,98066.91
2023-01-23T11:50:55.977Z,98079.53
2023-01-23T11:53:41.794Z,98088.78
2023-01-23T11:56:39.660Z,98087.94
2023-01-23T11:59:35.354Z,98092.09
2023-01-23T12:02:38.333Z,98087.06
2023-01-23T12:05:24.587Z,98093.81
2023-01-23T12:08:04.678Z,98096.34
2023-01-23T12:10:50.191Z,98082.03
2023-01-23T12:13:25.249Z,98084.56
2023-01-23T12:16:04.328Z,98087.13
2023-01-23T12:18:43.766Z,98077.03
2023-01-23T12:24:21.918Z,98077.00
2023-01-23T12:27:01.355Z,98083.75
2023-01-23T12:29:52.370Z,98085.41
2023-01-23T12:32:38.642Z,98095.56
2023-01-23T12:35:23.044Z,98100.59
2023-01-23T12:38:11.567Z,98108.16
2023-01-23T12:40:46.124Z,98103.09
2023-01-23T12:43:46.293Z,98111.50
2023-01-23T12:46:19.631Z,98113.19
2023-01-23T12:48:55.059Z,98117.44
2023-01-23T12:51:28.657Z,98120.75
2023-01-23T12:53:59.674Z,98122.41
2023-01-23T12:56:32.570Z,98133.41
2023-01-23T12:59:08.002Z,98132.53
2023-01-23T13:02:00.232Z,98135.06
2023-01-23T13:04:54.264Z,98125.78
2023-01-23T13:07:38.095Z,98124.13
2023-01-23T13:10:47.960Z,98128.38
2023-01-23T13:13:18.919Z,98107.34
2023-01-23T13:16:03.576Z,98086.34
2023-01-23T13:18:51.546Z,98074.53
2023-01-23T13:21:37.296Z,98065.31
2023-01-23T13:24:48.590Z,98060.28
2023-01-23T13:27:37.614Z,98056.91
2023-01-23T13:30:42.923Z,98063.66
2023-01-23T13:33:55.183Z,98050.25
2023-01-23T13:36:36.997Z,98042.69
2023-01-23T13:39:28.961Z,98030.03
2023-01-23T13:42:34.962Z,98027.50
2023-01-23T13:45:26.907Z,98029.19
2023-01-23T14:22:38.097Z,97995.63
2023-01-23T14:25:30.448Z,97996.44
2023-01-23T14:28:19.719Z,97995.72
2023-01-23T14:31:16.189Z,97984.72
2023-01-23T14:33:46.051Z,97988.09
2023-01-23T14:36:17.581Z,97983.91
2023-01-23T14:38:48.304Z,97979.72
2023-01-23T14:41:20.725Z,97973.81
2023-01-23T14:43:48.782Z,97962.13
2023-01-23T14:46:19.776Z,97964.66
2023-01-23T14:48:52.368Z,97951.16
2023-01-23T14:51:22.202Z,97945.28
2023-01-23T14:53:56.524Z,97939.38
2023-01-23T14:56:30.750Z,97936.91
2023-01-23T14:59:01.535Z,97930.16
2023-01-23T15:01:29.937Z,97931.88
2023-01-23T15:04:01.151Z,97924.28
2023-01-23T15:06:30.626Z,97929.38
2023-01-23T15:09:07.416Z,97926.00
2023-01-23T15:11:36.752Z,97917.59
2023-01-23T15:14:04.981Z,97910.88
2023-01-23T15:16:37.824Z,97912.59
2023-01-23T15:19:08.520Z,97907.50
2023-01-23T15:21:39.025Z,97901.66
2023-01-23T15:24:27.573Z,97887.31
2023-01-23T15:27:24.138Z,97892.41
2023-01-23T15:29:52.425Z,97887.38
2023-01-23T15:32:27.080Z,97874.81
2023-01-23T15:34:57.641Z,97866.38
2023-01-23T15:37:27.842Z,97863.06
2023-01-23T15:40:00.826Z,97852.97
2023-01-23T15:42:33.465Z,97852.19
2023-01-23T15:45:02.133Z,97844.59
2023-01-23T15:47:30.579Z,97837.03
2023-01-23T15:50:01.378Z,97832.84
2023-01-23T15:52:31.724Z,97832.03
2023-01-23T15:55:01.947Z,97816.91
2023-01-23T15:57:31.177Z,97816.09
2023-01-23T16:00:00.199Z,97811.03
2023-01-23T16:02:31.600Z,97804.28
2023-01-23T16:05:01.094Z,97805.13
2023-01-23T16:07:34.482Z,97812.75
2023-01-23T16:10:04.961Z,97811.84
2023-01-23T16:12:38.648Z,97800.09
2023-01-23T16:15:15.682Z,97801.81
2023-01-23T16:17:43.776Z,97802.66
2023-01-23T16:20:14.703Z,97806.06
2023-01-23T16:22:43.240Z,97801.00
2023-01-23T16:25:37.988Z,97797.63
2023-01-23T16:28:14.483Z,97803.53
2023-01-23T16:30:42.641Z,97797.63
2023-01-23T16:33:11.061Z,97802.66
2023-01-23T16:35:38.990Z,97808.53
2023-01-23T16:38:07.471Z,97809.44
2023-01-23T16:40:35.902Z,97805.25
2023-01-23T16:43:04.006Z,97801.03
2023-01-23T16:45:33.617Z,97795.13
2023-01-23T16:48:01.831Z,97799.38
2023-01-23T16:50:35.446Z,97795.13
2023-01-23T16:53:07.957Z,97790.91
2023-01-23T16:55:39.211Z,97796.00
2023-01-23T16:58:09.344Z,97794.31
2023-01-23T17:00:38.568Z,97797.69
2023-01-23T17:03:10.069Z,97805.28
2023-01-23T17:05:38.032Z,97794.31
2023-01-23T17:08:17.613Z,97796.06
2023-01-23T17:13:39.155Z,97784.31
2023-01-23T17:16:21.853Z,97771.66
2023-01-23T17:18:55.797Z,97778.47
2023-01-23T17:21:26.206Z,97769.19
2023-01-23T17:23:54.151Z,97764.94
2023-01-23T17:26:21.952Z,97770.03
2023-01-23T17:28:50.044Z,97759.94
2023-01-23T17:31:24.650Z,97766.69
2023-01-23T17:33:53.418Z,97767.56
2023-01-23T17:36:21.267Z,97761.66
2023-01-23T17:38:49.128Z,97764.19
2023-01-23T17:41:18.231Z,97757.47
2023-01-23T17:43:48.337Z,97760.84
2023-01-23T17:46:23.010Z,97760.84
2023-01-23T17:48:51.005Z,97753.28
2023-01-23T17:51:20.267Z,97758.34
2023-01-23T17:54:19.735Z,97755.81
2023-01-23T17:56:47.958Z,97754.94
2023-01-23T17:59:15.696Z,97758.34
2023-01-23T18:01:45.348Z,97760.00
2023-01-23T18:04:17.207Z,97762.53
2023-01-23T18:06:45.558Z,97755.75
2023-01-23T18:09:14.085Z,97760.84
2023-01-23T18:11:49.739Z,97763.38
2023-01-23T18:14:41.628Z,97754.97
2023-01-23T18:17:30.334Z,97747.38
2023-01-23T18:19:58.899Z,97761.72
2023-01-23T18:22:27.008Z,97760.00
2023-01-23T18:24:55.372Z,97758.34
2023-01-23T18:27:25.556Z,97756.63
2023-01-23T18:30:07.174Z,97765.91
2023-01-23T18:32:55.570Z,97765.97
2023-01-23T18:35:30.816Z,97766.72
2023-01-23T18:38:09.506Z,97763.38
2023-01-23T18:40:43.787Z,97775.16
2023-01-23T18:43:23.811Z,97769.28
2023-01-23T18:45:52.832Z,97770.09
2023-01-23T18:48:25.703Z,97766.72
2023-01-23T18:51:05.695Z,97765.91
2023-01-23T18:53:47.091Z,97765.06
2023-01-23T18:56:27.323Z,97765.06
2023-01-23T18:59:11.497Z,97763.41
2023-01-23T19:01:50.148Z,97766.78
2023-01-23T19:04:21.785Z,97770.22
2023-01-23T19:06:50.313Z,97759.25
2023-01-23T19:09:20.956Z,97757.56
2023-01-23T19:12:04.886Z,97754.19
2023-01-23T19:15:10.248Z,97758.41
2023-01-23T19:17:47.339Z,97764.31
2023-01-23T19:20:26.931Z,97754.19
2023-01-23T19:23:03.652Z,97760.97
2023-01-23T19:25:31.995Z,97755.88
2023-01-23T19:28:01.778Z,97751.69
2023-01-23T19:30:30.417Z,97745.81
2023-01-23T19:32:58.531Z,97749.16
2023-01-23T19:35:28.016Z,97755.88
2023-01-23T19:37:56.169Z,97750.88
2023-01-23T19:40:24.131Z,97763.50
2023-01-23T19:43:05.700Z,97758.44
2023-01-23T19:45:41.435Z,97749.16
2023-01-23T19:48:09.749Z,97753.41
2023-01-23T19:50:39.206Z,97747.50
2023-01-23T19:53:07.461Z,97755.94
2023-01-23T19:55:38.273Z,97762.69
2023-01-23T19:58:06.674Z,97762.69
2023-01-23T20:00:36.402Z,97769.38
2023-01-23T20:03:05.392Z,97768.50
2023-01-23T20:05:33.538Z,97772.69
2023-01-23T20:08:02.764Z,97780.25
2023-01-23T20:10:30.651Z,97792.84
2023-01-23T20:12:58.441Z,97801.25
2023-01-23T20:15:27.000Z,97813.00
2023-01-23T20:17:55.222Z,97824.72
2023-01-23T20:20:24.047Z,97840.66
2023-01-23T20:22:51.982Z,97861.72
2023-01-23T20:25:21.482Z,97865.91
2023-01-23T20:27:49.597Z,97871.75
2023-01-23T20:30:20.416Z,97881.84
2023-01-23T20:32:49.110Z,97892.75
2023-01-23T20:35:17.032Z,97903.69
2023-01-23T20:37:44.897Z,97917.91
2023-01-23T20:40:13.021Z,97925.47
2023-01-23T20:42:42.499Z,97928.84
2023-01-23T20:45:11.291Z,97929.66
2023-01-23T20:47:39.244Z,97934.75
2023-01-23T20:50:07.682Z,97930.50
2023-01-23T20:52:52.961Z,97938.13
2023-01-23T20:55:21.136Z,97938.94
2023-01-23T20:58:08.087Z,97934.69
2023-01-23T21:00:36.050Z,97943.19
2023-01-23T21:03:04.047Z,97936.41
2023-01-23T21:05:31.903Z,97935.56
2023-01-23T21:07:59.711Z,97933.09
2023-01-23T21:10:28.061Z,97925.47
2023-01-23T21:12:57.304Z,97926.34
2023-01-23T21:15:25.171Z,97925.53
2023-01-23T21:17:53.615Z,97920.44
2023-01-23T21:20:21.502Z,97911.19
2023-01-23T21:22:49.349Z,97923.00
2023-01-23T21:25:17.313Z,97920.50
2023-01-23T21:27:45.141Z,97917.09
2023-01-23T21:30:40.507Z,97919.63
2023-01-23T21:33:08.628Z,97931.44
2023-01-23T21:35:36.728Z,97934.75
2023-01-23T21:38:04.564Z,97938.16
2023-01-23T21:40:33.185Z,97933.91
2023-01-23T21:43:01.031Z,97936.41
2023-01-23T21:45:28.923Z,97940.66
2023-01-23T21:47:58.871Z,97944.84
2023-01-23T21:50:26.671Z,97950.72
2023-01-23T21:52:54.882Z,97966.75
2023-01-23T21:55:23.198Z,97966.69
2023-01-23T21:57:51.206Z,97965.84
2023-01-23T22:00:37.890Z,97966.69
2023-01-23T22:03:07.260Z,97953.22
2023-01-23T22:05:36.403Z,97966.75
2023-01-23T22:08:04.887Z,97962.50
2023-01-23T22:10:33.726Z,97960.00
2023-01-23T22:13:01.563Z,97952.44
2023-01-23T22:15:29.497Z,97949.94
2023-01-23T22:17:57.352Z,97945.72
2023-01-23T22:20:26.571Z,97946.56
2023-01-23T22:22:54.419Z,97946.56
2023-01-23T22:25:22.584Z,97946.56
2023-01-23T22:27:50.655Z,97940.72
2023-01-23T22:30:18.907Z,97933.09
2023-01-23T22:32:46.661Z,97939.06
2023-01-23T22:35:14.783Z,97934.84
2023-01-23T22:37:44.489Z,97925.59
2023-01-23T22:40:12.847Z,97923.94
2023-01-23T22:42:40.603Z,97920.59
2023-01-23T22:45:10.577Z,97915.50
2023-01-23T22:47:38.369Z,97910.47
2023-01-23T22:50:07.006Z,97911.41
2023-01-23T22:52:34.993Z,97902.09
2023-01-23T22:55:04.655Z,97903.81
2023-01-23T22:57:32.520Z,97893.66
2023-01-23T23:00:00.376Z,97900.47
2023-01-23T23:06:37.032Z,97881.91
2023-01-23T23:09:05.343Z,97891.25
2023-01-23T23:11:33.367Z,97886.16
2023-01-23T23:14:01.413Z,97881.09
2023-01-23T23:16:32.167Z,97879.44
2023-01-23T23:19:03.981Z,97885.34
2023-01-23T23:21:35.598Z,97884.50
2023-01-23T23:24:06.950Z,97883.69
2023-01-23T23:26:35.278Z,97882.03
2023-01-23T23:29:03.429Z,97876.06
2023-01-23T23:31:31.755Z,97873.59
2023-01-23T23:33:59.717Z,97867.69
2023-01-23T23:36:27.791Z,97867.69
2023-01-23T23:38:55.711Z,97877.00
2023-01-23T23:41:25.248Z,97870.22
2023-01-23T23:43:53.410Z,97870.22
2023-01-23T23:46:21.269Z,97876.94
2023-01-23T23:48:49.020Z,97877.84
2023-01-23T23:51:19.677Z,97876.13
2023-01-23T23:53:47.794Z,97871.06
2023-01-23T23:56:21.293Z,97873.59
2023-01-23T23:58:50.589Z,97868.53
